• Join FlightAware (Why Join?)
  • Login
  • US Flag 
11:13PM EDT


 

Airport Tracker/Info


-or-


 

Live Flight TrackerFlight Track Log ✈ DAL1084 ✈ 29-Aug-2013 ✈ PANC - KMSP

Flight Track Log - Related Links

Times and Time Zones

All times are in EDT time to prevent confusion due to time zone crossing. See the DAL1084 flight status page for this flight to view local times or setup timezone preferences in your user account.

Time Position Orientation Groundspeed Altitude Reporting Facility
EDT Latitude Longitude Course Direction KTS MPH feet Rate Location/Type
10:00AM 61.1718 -149.2021 109° East  Level Estimated
10:00AM 61.3000 -150.0167 139° Southeast 230 265 6,700  Level Anchorage Center
10:01AM 61.1700 -148.9368 101° East  Level Estimated
10:01AM 61.3000 -149.8833 90° East 250 288 9,100  Level Anchorage Center
10:02AM 61.1677 -148.6715 99° East  Level Estimated
10:02AM 61.3000 -149.7333 90° East 270 311 10,700  Level Anchorage Center
10:03AM 61.0661 -148.5104 142° Southeast  Level FlightAware Approximate
10:03AM 61.3000 -149.5333 90° East 330 380 11,900  Level Anchorage Center
10:04AM 61.0633 -148.2460 101° East  Level Estimated
10:04AM 61.3000 -149.3333 90° East 360 414 13,600  Level Anchorage Center
10:05AM 60.9661 -148.0743 139° Southeast  Level FlightAware Approximate
10:05AM 61.3167 -149.1167 81° East 360 414 15,600  Level Anchorage Center
10:06AM 61.3167 -148.9000 90° East 370 426 17,500 1,920 Climbing Anchorage Center
10:07AM 61.3167 -148.6833 90° East 390 449 19,500 1,740 Climbing Anchorage Center
10:08AM 61.3167 -148.4500 90° East 400 460 21,000 1,500 Climbing Anchorage Center
10:09AM 61.3000 -148.2167 98° East 400 460 22,500 1,200 Climbing Anchorage Center
10:10AM 61.2833 -147.9667 98° East 420 483 23,400 1,140 Climbing Anchorage Center
10:11AM 61.2500 -147.7167 105° East 440 506 24,800 1,200 Climbing Anchorage Center
10:12AM 61.2333 -147.4500 97° East 470 541 25,800 1,020 Climbing Anchorage Center
10:13AM 61.2000 -147.2000 105° East 460 529 26,900 960 Climbing Anchorage Center
10:14AM 61.1833 -146.9333 97° East 470 541 27,800 1,020 Climbing Anchorage Center
10:15AM 61.1500 -146.6500 104° East 490 564 29,000 1,260 Climbing Anchorage Center
10:16AM 61.1167 -146.3833 104° East 480 552 30,400 1,320 Climbing Anchorage Center
10:17AM 61.0833 -146.1167 104° East 480 552 31,700 1,200 Climbing Anchorage Center
10:18AM 61.0667 -145.8333 97° East 480 552 32,900 1,140 Climbing Anchorage Center
10:19AM 61.0333 -145.5667 104° East 480 552 34,000 1,020 Climbing Anchorage Center
10:20AM 61.0000 -145.3000 104° East 470 541 35,000 480 Climbing Anchorage Center
10:21AM 60.9667 -145.0500 105° East 460 529 35,000  Level Anchorage Center
10:22AM 60.9333 -144.7667 103° East 480 552 35,000  Level Anchorage Center
10:23AM 60.9000 -144.5000 104° East 480 552 35,000  Level Anchorage Center
10:24AM 60.8667 -144.2500 105° East 470 541 35,000  Level Anchorage Center
10:25AM 60.8333 -143.9833 104° East 470 541 35,000  Level Anchorage Center
10:26AM 60.8000 -143.7167 104° East 480 552 35,000  Level Anchorage Center
10:27AM 60.7667 -143.4500 104° East 470 541 35,000  Level Anchorage Center
10:28AM 60.7333 -143.1833 104° East 470 541 35,000  Level Anchorage Center
10:29AM 60.7000 -142.9167 104° East 470 541 35,000  Level Anchorage Center
10:30AM 60.6667 -142.6833 106° East 480 552 35,000  Level Anchorage Center
10:31AM 60.6333 -142.4167 104° East 470 541 35,000  Level Anchorage Center
10:32AM 60.6000 -142.1667 105° East 470 541 35,000  Level Anchorage Center
10:33AM 60.5667 -141.9000 104° East 470 541 35,000  Level Anchorage Center
10:34AM 60.5167 -141.6333 111° Southeast 480 552 35,000  Level Anchorage Center
10:35AM 60.4833 -141.3833 105° East 470 541 35,000  Level Anchorage Center
10:36AM 60.4500 -141.1333 105° East 470 541 35,000  Level Anchorage Center
10:37AM 60.4000 -140.8667 111° Southeast 470 541 35,000  Level Anchorage Center
10:38AM 60.3667 -140.6167 105° East 470 541 35,000  Level Anchorage Center
10:39AM 60.3333 -140.3667 105° East 470 541 35,000  Level Anchorage Center
10:40AM 60.2833 -140.1167 112° Southeast 470 541 35,000  Level Anchorage Center
10:41AM 60.2500 -139.8667 105° East 460 529 35,000  Level Anchorage Center
10:42AM 60.2000 -139.6167 112° Southeast 460 529 35,000  Level Anchorage Center
10:43AM 60.1667 -139.3667 105° East 470 541 35,000  Level Anchorage Center
10:44AM 60.1167 -139.1167 112° Southeast 460 529 35,000  Level Anchorage Center
10:45AM 60.0833 -138.8667 105° East 470 541 35,000  Level Anchorage Center
10:46AM 60.0500 -138.6000 104° East 470 541 35,000  Level Anchorage Center
10:47AM 60.0333 -138.3500 97° East 460 529 35,000  Level Anchorage Center
10:48AM 60.0000 -138.1000 105° East 460 529 35,000  Level Anchorage Center
10:49AM 59.9667 -137.8500 105° East 460 529 35,000  Level Anchorage Center
10:50AM 59.9333 -137.6000 105° East 460 529 35,000  Level Anchorage Center
10:51AM 59.9167 -137.3500 97° East 460 529 35,000  Level Anchorage Center
10:52AM 59.8833 -137.1000 105° East 460 529 35,000  Level Anchorage Center
10:53AM 59.8500 -136.8500 105° East 460 529 35,000  Level Anchorage Center
10:54AM 59.8167 -136.6000 105° East 470 541 35,000  Level Anchorage Center
10:55AM 59.7833 -136.3500 105° East 470 541 35,000  Level Anchorage Center
10:57AM 59.7204 -135.8812 105° East  Level FlightAware Approximate
11:04AM 59.4744 -134.1696 105° East  Level FlightAware Approximate
11:05AM 59.4374 -133.9271 107° East  Level FlightAware Approximate
11:06AM 59.4000 -133.6852 107° East  Level FlightAware Approximate
11:07AM 59.3621 -133.4438 107° East  Level FlightAware Approximate
11:08AM 59.3238 -133.2030 107° East  Level FlightAware Approximate
11:09AM 59.2851 -132.9627 107° East  Level FlightAware Approximate
11:10AM 59.2459 -132.7230 108° East  Level FlightAware Approximate
11:11AM 59.2063 -132.4838 108° East  Level FlightAware Approximate
11:12AM 59.1662 -132.2452 108° East  Level FlightAware Approximate
11:13AM 59.1257 -132.0071 108° East  Level FlightAware Approximate
11:14AM 59.0848 -131.7696 108° East  Level FlightAware Approximate
11:15AM 59.0434 -131.5327 109° East  Level FlightAware Approximate
11:16AM 59.0016 -131.2963 109° East  Level FlightAware Approximate
11:17AM 58.9594 -131.0605 109° East  Level FlightAware Approximate
11:18AM 58.9167 -130.8253 109° East  Level FlightAware Approximate
11:19AM 58.8737 -130.5907 109° East  Level FlightAware Approximate
11:20AM 58.8302 -130.3567 110° East  Level FlightAware Approximate
11:21AM 58.7862 -130.1232 110° East  Level FlightAware Approximate
11:22AM 58.7419 -129.8904 110° East  Level FlightAware Approximate
11:23AM 58.6971 -129.6582 110° East  Level FlightAware Approximate
11:24AM 58.6519 -129.4265 110° East  Level FlightAware Approximate
11:25AM 58.6063 -129.1954 111° Southeast  Level FlightAware Approximate
11:26AM 58.5603 -128.9650 111° Southeast  Level FlightAware Approximate
11:27AM 58.5139 -128.7352 111° Southeast  Level FlightAware Approximate
11:28AM 58.4671 -128.5059 111° Southeast  Level FlightAware Approximate
11:29AM 58.4198 -128.2773 111° Southeast  Level FlightAware Approximate
11:30AM 58.3722 -128.0493 112° Southeast  Level FlightAware Approximate
11:31AM 58.3241 -127.8219 112° Southeast  Level FlightAware Approximate
11:32AM 58.2757 -127.5952 112° Southeast  Level FlightAware Approximate
11:33AM 58.2268 -127.3690 112° Southeast  Level FlightAware Approximate
11:34AM 58.1776 -127.1435 112° Southeast  Level FlightAware Approximate
11:35AM 58.1279 -126.9186 113° Southeast  Level FlightAware Approximate
11:36AM 58.0779 -126.6943 113° Southeast  Level FlightAware Approximate
11:37AM 58.0274 -126.4707 113° Southeast  Level FlightAware Approximate
11:38AM 57.9767 -126.2476 113° Southeast  Level FlightAware Approximate
11:39AM 57.9258 -126.0250 113° Southeast  Level FlightAware Approximate
11:40AM 57.8745 -125.8030 113° Southeast  Level FlightAware Approximate
11:41AM 57.8228 -125.5816 114° Southeast  Level FlightAware Approximate
11:42AM 57.7707 -125.3609 114° Southeast  Level FlightAware Approximate
11:43AM 57.7183 -125.1409 114° Southeast  Level FlightAware Approximate
11:43AM 57.6833 -125.1000 115° Southeast 460 529 35,000  Level Edmonton Center
11:44AM 57.6655 -124.9214 114° Southeast  Level FlightAware Approximate
11:44AM 57.6333 -124.8833 113° Southeast 460 529 35,000  Level Edmonton Center
11:45AM 57.6122 -124.7026 114° Southeast  Level FlightAware Approximate
11:45AM 57.5833 -124.6500 112° Southeast 460 529 35,000  Level Edmonton Center
11:46AM 57.5586 -124.4845 115° Southeast  Level FlightAware Approximate
11:46AM 57.5333 -124.4500 115° Southeast 460 529 35,000  Level Edmonton Center
11:47AM 57.5047 -124.2670 115° Southeast  Level FlightAware Approximate
11:47AM 57.4667 -124.2333 120° Southeast 460 529 35,000  Level Edmonton Center
11:48AM 57.4503 -124.0501 115° Southeast  Level FlightAware Approximate
11:48AM 57.4167 -124.0333 115° Southeast 460 529 35,000  Level Edmonton Center
11:49AM 57.3667 -123.8167 113° Southeast 460 529 35,000  Level Edmonton Center
11:50AM 57.3167 -123.5833 112° Southeast 450 518 35,000  Level Edmonton Center
11:51AM 57.2500 -123.4000 124° Southeast 450 518 35,000  Level Edmonton Center
11:52AM 57.2000 -123.1833 113° Southeast 450 518 35,000  Level Edmonton Center
11:53AM 57.1333 -122.9833 121° Southeast 450 518 35,000  Level Edmonton Center
11:54AM 57.0833 -122.7333 110° East 460 529 35,000  Level Edmonton Center
11:55AM 57.0333 -122.5500 117° Southeast 460 529 35,000  Level Edmonton Center
11:56AM 56.9833 -122.3333 113° Southeast 460 529 35,000  Level Edmonton Center
11:57AM 56.9167 -122.1000 118° Southeast 460 529 35,000  Level Edmonton Center
11:58AM 56.8667 -121.9167 116° Southeast 460 529 35,000  Level Edmonton Center
11:59AM 56.8000 -121.7000 119° Southeast 460 529 35,000  Level Edmonton Center
12:00PM 56.7500 -121.4833 113° Southeast 460 529 35,000 300 Level Edmonton Center
12:01PM 56.6667 -121.2667 125° Southeast 460 529 35,600 720 Climbing Edmonton Center
12:02PM 56.6333 -121.0833 108° East 460 529 36,500 660 Climbing Edmonton Center
12:03PM 56.5500 -120.8667 125° Southeast 460 529 37,000 240 Climbing Edmonton Center
12:04PM 56.5000 -120.6500 113° Southeast 460 529 37,000  Level Edmonton Center
12:05PM 56.4333 -120.4333 119° Southeast 460 529 37,000  Level Edmonton Center
12:06PM 56.3667 -120.2500 123° Southeast 460 529 37,000  Level Edmonton Center
12:07PM 56.3167 -120.0333 113° Southeast 460 529 37,000  Level Edmonton Center
12:08PM 56.2500 -119.8333 121° Southeast 460 529 37,000  Level Edmonton Center
12:09PM 56.2000 -119.6167 112° Southeast 460 529 37,000  Level Edmonton Center
12:10PM 56.1333 -119.4000 119° Southeast 460 529 37,000  Level Edmonton Center
12:11PM 56.0667 -119.2333 126° Southeast 460 529 37,000  Level Edmonton Center
12:12PM 56.0000 -119.0167 119° Southeast 460 529 37,000  Level Edmonton Center
12:13PM 55.9500 -118.8167 114° Southeast 460 529 37,000  Level Edmonton Center
12:14PM 55.8833 -118.6333 123° Southeast 460 529 37,000  Level Edmonton Center
12:15PM 55.8167 -118.4333 121° Southeast 460 529 37,000  Level Edmonton Center
12:16PM 55.7500 -118.2167 119° Southeast 460 529 37,000  Level Edmonton Center
12:17PM 55.6667 -118.0167 126° Southeast 460 529 37,000  Level Edmonton Center
12:18PM 55.6167 -117.8000 112° Southeast 460 529 37,000  Level Edmonton Center
12:19PM 55.5500 -117.6000 120° Southeast 460 529 37,000  Level Edmonton Center
12:20PM 55.4833 -117.4333 125° Southeast 470 541 37,000  Level Edmonton Center
12:21PM 55.4167 -117.2167 118° Southeast 470 541 37,000  Level Edmonton Center
12:22PM 55.3500 -117.0167 120° Southeast 470 541 37,000  Level Edmonton Center
12:23PM 55.2833 -116.8167 120° Southeast 470 541 37,000  Level Edmonton Center
12:24PM 55.2000 -116.6167 126° Southeast 470 541 37,000  Level Edmonton Center
12:25PM 55.1333 -116.4167 120° Southeast 480 552 37,000  Level Edmonton Center
12:26PM 55.0667 -116.2167 120° Southeast 480 552 37,000  Level Edmonton Center
12:27PM 55.0000 -116.0167 120° Southeast 480 552 37,000  Level Edmonton Center
12:28PM 54.9167 -115.8167 126° Southeast 480 552 37,000  Level Edmonton Center
12:29PM 54.8500 -115.6167 120° Southeast 480 552 37,000  Level Edmonton Center
12:30PM 54.7833 -115.4167 120° Southeast 480 552 37,000  Level Edmonton Center
12:31PM 54.7167 -115.2167 120° Southeast 480 552 37,000  Level Edmonton Center
12:32PM 54.6500 -115.0333 122° Southeast 470 541 37,000  Level Edmonton Center
12:33PM 54.5667 -114.8333 126° Southeast 480 552 37,000  Level Edmonton Center
12:34PM 54.4833 -114.6333 126° Southeast 480 552 37,000  Level Edmonton Center
12:35PM 54.4167 -114.4500 122° Southeast 480 552 37,000  Level Edmonton Center
12:36PM 54.3500 -114.2500 120° Southeast 480 552 37,000  Level Edmonton Center
12:37PM 54.2833 -114.0667 122° Southeast 480 552 37,000  Level Edmonton Center
12:38PM 54.2000 -113.8667 125° Southeast 480 552 37,000  Level Edmonton Center
12:39PM 54.1167 -113.6667 125° Southeast 490 564 37,000  Level Edmonton Center
12:40PM 54.0333 -113.4500 123° Southeast 490 564 37,000  Level Edmonton Center
12:41PM 53.9667 -113.2667 122° Southeast 490 564 37,000  Level Edmonton Center
12:42PM 53.9000 -113.1000 124° Southeast 490 564 37,000  Level Edmonton Center
12:43PM 53.8167 -112.8833 123° Southeast 480 552 37,000  Level Edmonton Center
12:44PM 53.7500 -112.7000 122° Southeast 480 552 37,000  Level Edmonton Center
12:45PM 53.6667 -112.5167 127° Southeast 480 552 37,000  Level Edmonton Center
12:46PM 53.5833 -112.3333 127° Southeast 480 552 37,000  Level Edmonton Center
12:47PM 53.5167 -112.1500 121° Southeast 480 552 37,000  Level Edmonton Center
12:48PM 53.4167 -111.9500 130° Southeast 480 552 37,000  Level Edmonton Center
12:49PM 53.3500 -111.7667 121° Southeast 480 552 37,000  Level Edmonton Center
12:50PM 53.2833 -111.5833 121° Southeast 470 541 37,000  Level Edmonton Center
12:51PM 53.2000 -111.4000 127° Southeast 470 541 37,000  Level Edmonton Center
12:52PM 53.1333 -111.2333 124° Southeast 470 541 37,000  Level Edmonton Center
12:53PM 53.0500 -111.0500 127° Southeast 470 541 37,000  Level Edmonton Center
12:54PM 52.9833 -110.9000 126° Southeast 470 541 37,000 300 Level Edmonton Center
12:55PM 52.9000 -110.6833 122° Southeast 470 541 37,600 420 Climbing Edmonton Center
12:56PM 52.8333 -110.5000 121° Southeast 470 541 37,900 540 Climbing Edmonton Center
12:57PM 52.7667 -110.3000 119° Southeast 480 552 38,700 540 Climbing Edmonton Center
12:58PM 52.7000 -110.1000 119° Southeast 480 552 39,000 180 Climbing Edmonton Center
12:59PM 52.6667 -110.0500 138° Southeast 490 564 39,000  Level Winnipeg Center
01:00PM 52.6000 -109.8333 117° Southeast 490 564 39,000  Level Winnipeg Center
01:01PM 52.5333 -109.6500 121° Southeast 500 575 39,000  Level Winnipeg Center
01:02PM 52.4500 -109.4333 122° Southeast 510 587 39,000  Level Winnipeg Center
01:03PM 52.3833 -109.2333 119° Southeast 500 575 39,000  Level Winnipeg Center
01:04PM 52.3000 -109.0500 127° Southeast 500 575 39,000  Level Winnipeg Center
01:05PM 52.2500 -108.8667 114° Southeast 500 575 39,000  Level Winnipeg Center
01:06PM 52.1833 -108.6833 121° Southeast 500 575 39,000  Level Winnipeg Center
01:07PM 52.1000 -108.4667 122° Southeast 500 575 39,000  Level Winnipeg Center
01:08PM 52.0333 -108.2833 121° Southeast 500 575 39,000  Level Winnipeg Center
01:09PM 51.9500 -108.0833 124° Southeast 500 575 39,000  Level Winnipeg Center
01:10PM 51.8833 -107.9000 120° Southeast 500 575 39,000  Level Winnipeg Center
01:11PM 51.8000 -107.7167 126° Southeast 500 575 39,000  Level Winnipeg Center
01:12PM 51.7333 -107.5333 120° Southeast 490 564 39,000  Level Winnipeg Center
01:13PM 51.6667 -107.3500 120° Southeast 490 564 39,000  Level Winnipeg Center
01:14PM 51.5833 -107.1500 124° Southeast 490 564 39,000  Level Winnipeg Center
01:15PM 51.5167 -106.9667 120° Southeast 490 564 39,000  Level Winnipeg Center
01:16PM 51.4167 -106.7833 131° Southeast 500 575 39,000  Level Winnipeg Center
01:17PM 51.3500 -106.6000 120° Southeast 490 564 39,000  Level Winnipeg Center
01:18PM 51.2833 -106.4000 118° Southeast 490 564 39,000  Level Winnipeg Center
01:19PM 51.2000 -106.2167 126° Southeast 500 575 39,000  Level Winnipeg Center
01:20PM 51.1333 -106.0500 122° Southeast 490 564 39,000  Level Winnipeg Center
01:21PM 51.0667 -105.8667 120° Southeast 500 575 39,000  Level Winnipeg Center
01:22PM 50.9833 -105.6667 123° Southeast 500 575 39,000  Level Winnipeg Center
01:23PM 50.9000 -105.5000 128° Southeast 490 564 39,000  Level Winnipeg Center
01:24PM 50.8167 -105.3167 126° Southeast 490 564 39,000  Level Winnipeg Center
01:25PM 50.7500 -105.1500 122° Southeast 490 564 39,000  Level Winnipeg Center
01:26PM 50.6667 -104.9500 123° Southeast 490 564 39,000  Level Winnipeg Center
01:27PM 50.6000 -104.7833 122° Southeast 490 564 39,000  Level Winnipeg Center
01:28PM 50.5333 -104.6167 122° Southeast 490 564 39,000  Level Winnipeg Center
01:29PM 50.4333 -104.4333 131° Southeast 500 575 39,000  Level Winnipeg Center
01:30PM 50.3667 -104.2333 118° Southeast 500 575 39,000  Level Winnipeg Center
01:31PM 50.3000 -104.0667 122° Southeast 500 575 39,000  Level Winnipeg Center
01:32PM 50.2000 -103.8667 128° Southeast 500 575 39,000  Level Winnipeg Center
01:33PM 50.1333 -103.7000 122° Southeast 500 575 39,000  Level Winnipeg Center
01:34PM 50.0667 -103.5167 119° Southeast 500 575 39,000  Level Winnipeg Center
01:35PM 49.9833 -103.3500 128° Southeast 500 575 39,000  Level Winnipeg Center
01:36PM 49.9000 -103.1500 123° Southeast 500 575 39,000  Level Winnipeg Center
01:37PM 49.8167 -102.9833 128° Southeast 500 575 39,000  Level Winnipeg Center
01:38PM 49.7500 -102.8167 122° Southeast 500 575 39,000  Level Winnipeg Center
01:39PM 49.6500 -102.6333 130° Southeast 500 575 39,000  Level Winnipeg Center
01:40PM 49.5833 -102.4667 122° Southeast 500 575 39,000  Level Winnipeg Center
01:41PM 49.5000 -102.2667 123° Southeast 500 575 39,000  Level Winnipeg Center
01:42PM 49.4333 -102.1167 124° Southeast 490 564 39,000  Level Winnipeg Center
01:43PM 49.3333 -101.9167 127° Southeast 490 564 39,000  Level Winnipeg Center
01:44PM 49.2667 -101.7667 124° Southeast 490 564 39,000  Level Winnipeg Center
01:45PM 49.1833 -101.6000 127° Southeast 490 564 39,000  Level Winnipeg Center
01:46PM 49.1000 -101.4167 125° Southeast 500 575 39,000  Level Winnipeg Center
01:47PM 49.0333 -101.2500 121° Southeast 500 575 39,000  Level Winnipeg Center
01:48PM 48.9500 -101.0667 125° Southeast 510 587 39,000  Level Winnipeg Center
01:49PM 48.8833 -100.8833 119° Southeast 500 575 39,000  Level Winnipeg Center
01:50PM 48.8167 -100.7000 119° Southeast 500 575 39,000  Level Winnipeg Center
01:51PM 48.7639 -100.5281 115° Southeast 502 578 39,000  Level Minneapolis Center
01:52PM 48.6925 -100.3472 121° Southeast 501 577 39,000  Level Minneapolis Center
01:53PM 48.6222 -100.1644 120° Southeast 503 579 39,000  Level Minneapolis Center
01:54PM 48.5500 -99.9833 121° Southeast 504 580 39,000  Level Minneapolis Center
01:55PM 48.4769 -99.7997 121° Southeast 509 586 39,000  Level Minneapolis Center
01:57PM 48.3175 -99.4017 121° Southeast 506 582 39,000  Level Minneapolis Center
01:59PM 48.1747 -99.0431 121° Southeast 503 579 39,000  Level Minneapolis Center
02:00PM 48.0864 -98.8272 121° Southeast 506 582 39,000  Level Minneapolis Center
02:01PM 47.9975 -98.6128 122° Southeast 508 585 39,000  Level Minneapolis Center
02:02PM 47.9231 -98.4344 122° Southeast 507 583 39,000  Level Minneapolis Center
02:03PM 47.8467 -98.2547 122° Southeast 510 587 39,000  Level Minneapolis Center
02:04PM 47.7711 -98.0756 122° Southeast 510 587 39,000  Level Minneapolis Center
02:05PM 47.7106 -97.9319 122° Southeast 510 587 39,000  Level Minneapolis Center
02:06PM 47.6169 -97.7139 122° Southeast 508 585 39,000  Level Minneapolis Center
02:07PM 47.5397 -97.5353 123° Southeast 508 585 39,000  Level Minneapolis Center
02:08PM 47.4631 -97.3578 123° Southeast 509 586 39,000  Level Minneapolis Center
02:09PM 47.3861 -97.1825 123° Southeast 508 585 39,000  Level Minneapolis Center
02:11PM 47.2933 -96.9708 123° Southeast 512 589 39,000  Level Minneapolis Center
02:12PM 47.2161 -96.7967 123° Southeast 511 588 39,000  Level Minneapolis Center
02:13PM 47.1544 -96.6586 123° Southeast 508 585 39,000  Level Minneapolis Center
02:14PM 47.0606 -96.4514 124° Southeast 508 585 39,000  Level Minneapolis Center
02:15PM 46.9825 -96.2786 123° Southeast 509 586 39,000  Level Minneapolis Center
02:16PM 46.8900 -96.0739 123° Southeast 505 581 39,000  Level Minneapolis Center
02:17PM 46.8114 -95.9064 124° Southeast 503 579 39,000  Level Minneapolis Center
02:18PM 46.7419 -95.7531 123° Southeast 503 579 39,000  Level Minneapolis Center
02:19PM 46.6558 -95.5692 124° Southeast 502 578 39,000 -420 Level Minneapolis Center
02:20PM 46.5697 -95.3869 124° Southeast 501 577 38,200 -1,560 Descending Minneapolis Center
02:21PM 46.4922 -95.2194 124° Southeast 502 578 35,800 -2,400 Descending Minneapolis Center
02:22PM 46.4133 -95.0539 125° Southeast 502 578 33,200 -2,280 Descending Minneapolis Center
02:23PM 46.3331 -94.8878 125° Southeast 505 581 30,600 -2,340 Descending Minneapolis Center
02:24PM 46.2403 -94.6922 124° Southeast 496 571 28,000 -2,400 Descending Minneapolis Center
02:25PM 46.1561 -94.5169 125° Southeast 481 554 25,700 -2,160 Descending Minneapolis Center
02:26PM 46.0817 -94.3650 125° Southeast 469 540 23,600 -2,220 Descending Minneapolis Center
02:27PM 45.9953 -94.1875 125° Southeast 455 524 21,200 -2,160 Descending Minneapolis Center
02:28PM 45.9261 -94.0458 125° Southeast 440 506 19,200 -1,920 Descending Minneapolis Center
02:29PM 45.8564 -93.9089 126° Southeast 429 494 17,200 -1,920 Descending Minneapolis Center
02:30PM 45.7908 -93.7742 125° Southeast 418 481 15,200 -1,800 Descending Minneapolis Center
02:31PM 45.7153 -93.6781 138° Southeast 365 420 13,500 -1,740 Descending Minneapolis Center
02:32PM 45.6264 -93.6308 160° South 342 394 11,700 -1,260 Descending Minneapolis Center
02:34PM 45.5192 -93.5733 159° South 342 394 11,000 -540 Descending Minneapolis Center
02:35PM 45.4286 -93.5358 164° South 338 389 10,700 -540 Descending Minneapolis Center
02:36PM 45.3458 -93.5281 176° South 301 346 10,000 -1,020 Descending Minneapolis Center
02:37PM 45.2678 -93.5164 174° South 285 328 8,600 -1,500 Descending Minneapolis Center
02:38PM 45.1925 -93.5050 174° South 275 316 6,900 -1,800 Descending Minneapolis Center
02:39PM 45.1222 -93.4839 168° South 263 303 5,000 -1,440 Descending Minneapolis Center
02:40PM 45.0481 -93.4261 151° Southeast 252 290 4,000 -540 Descending Minneapolis Center
02:41PM 44.9992 -93.3892 152° Southeast 202 232 3,900 -480 Descending Minneapolis Center
02:42PM 44.9592 -93.3553 149° Southeast 173 199 3,000 -780 Descending Minneapolis Center
02:43PM 44.9319 -93.3122 132° Southeast 150 173 2,300 -780 Descending Minneapolis Center
02:44PM 44.9122 -93.2650 121° Southeast 141 162 1,500 -780 Descending Minneapolis Center